sensor_id;sensor_type;location;lat;lon;timestamp;temperature;humidity
21023;DHT22;10669;51.076;3.714;2023-02-28T00:02:42;3.00;99.90
21023;DHT22;10669;51.076;3.714;2023-02-28T00:05:08;3.00;21.00
21023;DHT22;10669;51.076;3.714;2023-02-28T00:07:34;3.00;90.60
21023;DHT22;10669;51.076;3.714;2023-02-28T00:10:01;3.10;1.00
21023;DHT22;10669;51.076;3.714;2023-02-28T00:12:30;3.00;77.70
21023;DHT22;10669;51.076;3.714;2023-02-28T00:14:57;2.90;99.90
21023;DHT22;10669;51.076;3.714;2023-02-28T00:17:23;2.90;99.90
21023;DHT22;10669;51.076;3.714;2023-02-28T00:19:52;2.90;99.90
21023;DHT22;10669;51.076;3.714;2023-02-28T00:22:18;2.90;99.90
21023;DHT22;10669;51.076;3.714;2023-02-28T00:24:48;2.90;99.90
21023;DHT22;10669;51.076;3.714;2023-02-28T00:27:15;2.90;99.90
21023;DHT22;10669;51.076;3.714;2023-02-28T00:29:42;2.90;99.90
21023;DHT22;10669;51.076;3.714;2023-02-28T00:32:07;2.90;99.90
21023;DHT22;10669;51.076;3.714;2023-02-28T00:34:40;2.80;99.90
21023;DHT22;10669;51.076;3.714;2023-02-28T00:37:09;2.80;99.90
21023;DHT22;10669;51.076;3.714;2023-02-28T00:39:38;2.90;99.90
21023;DHT22;10669;51.076;3.714;2023-02-28T00:42:05;2.80;99.90
21023;DHT22;10669;51.076;3.714;2023-02-28T00:44:32;2.90;99.90
21023;DHT22;10669;51.076;3.714;2023-02-28T00:47:00;2.90;99.90
21023;DHT22;10669;51.076;3.714;2023-02-28T00:49:26;2.90;99.90
21023;DHT22;10669;51.076;3.714;2023-02-28T00:51:53;2.90;99.90
21023;DHT22;10669;51.076;3.714;2023-02-28T00:54:21;2.90;99.90
21023;DHT22;10669;51.076;3.714;2023-02-28T00:56:47;2.90;99.90
21023;DHT22;10669;51.076;3.714;2023-02-28T00:59:15;2.90;99.90
21023;DHT22;10669;51.076;3.714;2023-02-28T01:01:41;2.90;99.90
21023;DHT22;10669;51.076;3.714;2023-02-28T01:04:07;2.80;99.90
21023;DHT22;10669;51.076;3.714;2023-02-28T01:06:35;2.80;99.90
21023;DHT22;10669;51.076;3.714;2023-02-28T01:09:03;2.80;1.00
21023;DHT22;10669;51.076;3.714;2023-02-28T01:11:30;2.80;1.00
21023;DHT22;10669;51.076;3.714;2023-02-28T01:13:58;2.70;1.00
21023;DHT22;10669;51.076;3.714;2023-02-28T01:16:26;2.70;1.00
21023;DHT22;10669;51.076;3.714;2023-02-28T01:18:53;2.70;1.00
21023;DHT22;10669;51.076;3.714;2023-02-28T01:21:19;2.80;1.00
21023;DHT22;10669;51.076;3.714;2023-02-28T01:23:48;2.80;1.00
21023;DHT22;10669;51.076;3.714;2023-02-28T01:26:21;2.80;1.00
21023;DHT22;10669;51.076;3.714;2023-02-28T01:28:49;2.80;1.00
21023;DHT22;10669;51.076;3.714;2023-02-28T01:31:15;2.80;1.00
21023;DHT22;10669;51.076;3.714;2023-02-28T01:33:47;2.80;1.00
21023;DHT22;10669;51.076;3.714;2023-02-28T01:36:18;2.70;1.00
21023;DHT22;10669;51.076;3.714;2023-02-28T01:38:44;2.70;1.00
21023;DHT22;10669;51.076;3.714;2023-02-28T01:41:15;2.60;1.00
21023;DHT22;10669;51.076;3.714;2023-02-28T01:46:14;2.60;1.00
21023;DHT22;10669;51.076;3.714;2023-02-28T01:48:42;2.60;1.00
21023;DHT22;10669;51.076;3.714;2023-02-28T01:51:13;2.60;1.00
21023;DHT22;10669;51.076;3.714;2023-02-28T01:53:45;2.50;1.00
21023;DHT22;10669;51.076;3.714;2023-02-28T01:56:17;2.50;1.00
21023;DHT22;10669;51.076;3.714;2023-02-28T01:58:52;2.50;1.00
21023;DHT22;10669;51.076;3.714;2023-02-28T02:03:51;2.50;1.00
21023;DHT22;10669;51.076;3.714;2023-02-28T02:06:24;2.40;1.00
21023;DHT22;10669;51.076;3.714;2023-02-28T02:08:50;2.60;1.00
21023;DHT22;10669;51.076;3.714;2023-02-28T02:11:19;2.60;1.00
21023;DHT22;10669;51.076;3.714;2023-02-28T02:19:11;2.40;1.00
21023;DHT22;10669;51.076;3.714;2023-02-28T02:29:23;2.20;1.00
21023;DHT22;10669;51.076;3.714;2023-02-28T02:34:37;2.20;1.00
21023;DHT22;10669;51.076;3.714;2023-02-28T02:43:04;2.20;1.00
21023;DHT22;10669;51.076;3.714;2023-02-28T02:45:14;2.30;1.00
21023;DHT22;10669;51.076;3.714;2023-02-28T02:47:42;2.20;1.00
21023;DHT22;10669;51.076;3.714;2023-02-28T02:50:08;2.30;1.00
21023;DHT22;10669;51.076;3.714;2023-02-28T02:52:39;2.30;1.00
21023;DHT22;10669;51.076;3.714;2023-02-28T02:55:07;2.20;1.00
21023;DHT22;10669;51.076;3.714;2023-02-28T03:00:11;2.10;1.00
21023;DHT22;10669;51.076;3.714;2023-02-28T03:02:37;2.00;1.00
21023;DHT22;10669;51.076;3.714;2023-02-28T03:05:08;2.10;1.00
21023;DHT22;10669;51.076;3.714;2023-02-28T03:10:28;2.30;1.00
21023;DHT22;10669;51.076;3.714;2023-02-28T03:12:57;2.30;1.00
21023;DHT22;10669;51.076;3.714;2023-02-28T03:15:38;2.10;1.00
21023;DHT22;10669;51.076;3.714;2023-02-28T03:18:57;2.00;1.00
21023;DHT22;10669;51.076;3.714;2023-02-28T03:21:31;1.90;1.00
21023;DHT22;10669;51.076;3.714;2023-02-28T03:24:09;1.90;1.00
21023;DHT22;10669;51.076;3.714;2023-02-28T03:26:39;2.00;1.00
21023;DHT22;10669;51.076;3.714;2023-02-28T03:29:18;2.00;1.00
21023;DHT22;10669;51.076;3.714;2023-02-28T03:31:45;1.90;1.00
21023;DHT22;10669;51.076;3.714;2023-02-28T03:34:33;2.00;1.00
21023;DHT22;10669;51.076;3.714;2023-02-28T03:37:11;2.00;1.00
21023;DHT22;10669;51.076;3.714;2023-02-28T03:39:42;2.20;1.00
21023;DHT22;10669;51.076;3.714;2023-02-28T03:42:12;2.20;1.00
21023;DHT22;10669;51.076;3.714;2023-02-28T03:44:41;2.10;1.00
21023;DHT22;10669;51.076;3.714;2023-02-28T03:47:17;2.10;1.00
21023;DHT22;10669;51.076;3.714;2023-02-28T03:52:11;2.10;1.00
21023;DHT22;10669;51.076;3.714;2023-02-28T03:54:44;2.20;1.00
21023;DHT22;10669;51.076;3.714;2023-02-28T03:57:20;2.20;1.00
21023;DHT22;10669;51.076;3.714;2023-02-28T03:59:56;2.20;1.00
21023;DHT22;10669;51.076;3.714;2023-02-28T04:02:25;2.30;1.00
21023;DHT22;10669;51.076;3.714;2023-02-28T04:04:52;2.20;1.00
21023;DHT22;10669;51.076;3.714;2023-02-28T04:07:18;2.20;1.00
21023;DHT22;10669;51.076;3.714;2023-02-28T04:09:45;2.30;1.00
21023;DHT22;10669;51.076;3.714;2023-02-28T04:12:12;2.40;1.00
21023;DHT22;10669;51.076;3.714;2023-02-28T04:14:38;2.50;1.00
21023;DHT22;10669;51.076;3.714;2023-02-28T04:17:04;2.50;1.00
21023;DHT22;10669;51.076;3.714;2023-02-28T04:19:33;2.60;1.00
21023;DHT22;10669;51.076;3.714;2023-02-28T04:22:00;2.60;1.00
21023;DHT22;10669;51.076;3.714;2023-02-28T04:24:26;2.80;1.00
21023;DHT22;10669;51.076;3.714;2023-02-28T04:26:55;2.70;1.00
21023;DHT22;10669;51.076;3.714;2023-02-28T04:29:22;2.70;1.00
21023;DHT22;10669;51.076;3.714;2023-02-28T04:31:48;2.70;1.00
21023;DHT22;10669;51.076;3.714;2023-02-28T04:34:16;2.80;1.00
21023;DHT22;10669;51.076;3.714;2023-02-28T04:36:41;3.10;1.00
21023;DHT22;10669;51.076;3.714;2023-02-28T04:39:07;3.30;1.00
21023;DHT22;10669;51.076;3.714;2023-02-28T04:41:35;3.20;1.00
21023;DHT22;10669;51.076;3.714;2023-02-28T04:44:01;3.20;1.00
21023;DHT22;10669;51.076;3.714;2023-02-28T04:46:28;3.30;1.00
21023;DHT22;10669;51.076;3.714;2023-02-28T04:48:55;3.50;1.00
21023;DHT22;10669;51.076;3.714;2023-02-28T04:51:22;3.40;1.00
21023;DHT22;10669;51.076;3.714;2023-02-28T04:53:47;3.50;1.00
21023;DHT22;10669;51.076;3.714;2023-02-28T04:56:14;3.40;1.00
21023;DHT22;10669;51.076;3.714;2023-02-28T04:58:46;3.60;1.00
21023;DHT22;10669;51.076;3.714;2023-02-28T05:01:20;4.00;1.00
21023;DHT22;10669;51.076;3.714;2023-02-28T05:03:47;3.90;1.00
21023;DHT22;10669;51.076;3.714;2023-02-28T05:06:14;3.90;1.00
21023;DHT22;10669;51.076;3.714;2023-02-28T05:08:40;3.60;1.00
21023;DHT22;10669;51.076;3.714;2023-02-28T05:11:08;3.50;1.00
21023;DHT22;10669;51.076;3.714;2023-02-28T05:13:38;3.50;1.00
21023;DHT22;10669;51.076;3.714;2023-02-28T05:16:05;3.60;1.00
21023;DHT22;10669;51.076;3.714;2023-02-28T05:18:33;3.80;1.00
21023;DHT22;10669;51.076;3.714;2023-02-28T05:21:01;4.20;1.00
21023;DHT22;10669;51.076;3.714;2023-02-28T05:23:31;4.30;1.00
21023;DHT22;10669;51.076;3.714;2023-02-28T05:28:27;3.20;1.00
21023;DHT22;10669;51.076;3.714;2023-02-28T05:30:54;3.00;1.00
21023;DHT22;10669;51.076;3.714;2023-02-28T05:33:22;3.00;1.00
21023;DHT22;10669;51.076;3.714;2023-02-28T05:35:49;2.90;1.00
21023;DHT22;10669;51.076;3.714;2023-02-28T05:38:16;2.80;1.00
21023;DHT22;10669;51.076;3.714;2023-02-28T05:40:44;2.80;1.00
21023;DHT22;10669;51.076;3.714;2023-02-28T05:43:10;2.80;1.00
21023;DHT22;10669;51.076;3.714;2023-02-28T05:45:38;2.90;1.00
21023;DHT22;10669;51.076;3.714;2023-02-28T05:48:10;2.90;1.00
21023;DHT22;10669;51.076;3.714;2023-02-28T05:50:36;2.80;1.00
21023;DHT22;10669;51.076;3.714;2023-02-28T05:53:01;2.80;1.00
21023;DHT22;10669;51.076;3.714;2023-02-28T05:55:28;2.70;1.00
21023;DHT22;10669;51.076;3.714;2023-02-28T05:57:55;2.70;1.00
21023;DHT22;10669;51.076;3.714;2023-02-28T06:00:22;2.80;1.00
21023;DHT22;10669;51.076;3.714;2023-02-28T06:02:47;2.80;1.00
21023;DHT22;10669;51.076;3.714;2023-02-28T06:05:15;2.80;1.00
21023;DHT22;10669;51.076;3.714;2023-02-28T06:07:44;2.80;1.00
21023;DHT22;10669;51.076;3.714;2023-02-28T06:10:10;2.80;1.00
21023;DHT22;10669;51.076;3.714;2023-02-28T06:12:37;2.80;1.00
21023;DHT22;10669;51.076;3.714;2023-02-28T06:15:14;2.80;1.00
21023;DHT22;10669;51.076;3.714;2023-02-28T06:17:42;2.90;1.00
21023;DHT22;10669;51.076;3.714;2023-02-28T06:20:08;3.00;1.00
21023;DHT22;10669;51.076;3.714;2023-02-28T06:22:36;3.00;1.00
21023;DHT22;10669;51.076;3.714;2023-02-28T06:25:03;2.90;1.00
21023;DHT22;10669;51.076;3.714;2023-02-28T06:27:30;2.90;1.00
21023;DHT22;10669;51.076;3.714;2023-02-28T06:29:57;2.90;1.00
21023;DHT22;10669;51.076;3.714;2023-02-28T06:32:23;2.90;1.00
21023;DHT22;10669;51.076;3.714;2023-02-28T06:34:49;2.90;1.00
21023;DHT22;10669;51.076;3.714;2023-02-28T06:37:17;2.80;1.00
21023;DHT22;10669;51.076;3.714;2023-02-28T06:39:44;2.80;1.00
21023;DHT22;10669;51.076;3.714;2023-02-28T06:42:11;2.90;1.00
21023;DHT22;10669;51.076;3.714;2023-02-28T06:44:36;3.00;1.00
21023;DHT22;10669;51.076;3.714;2023-02-28T06:47:02;3.00;1.00
21023;DHT22;10669;51.076;3.714;2023-02-28T06:49:30;3.00;1.00
21023;DHT22;10669;51.076;3.714;2023-02-28T06:51:56;2.90;1.00
21023;DHT22;10669;51.076;3.714;2023-02-28T06:54:23;3.00;1.00
21023;DHT22;10669;51.076;3.714;2023-02-28T06:56:50;3.00;1.00
21023;DHT22;10669;51.076;3.714;2023-02-28T06:59:16;3.10;1.00
21023;DHT22;10669;51.076;3.714;2023-02-28T07:01:42;3.10;1.00
21023;DHT22;10669;51.076;3.714;2023-02-28T07:04:07;3.00;1.00
21023;DHT22;10669;51.076;3.714;2023-02-28T07:06:34;3.00;99.90
21023;DHT22;10669;51.076;3.714;2023-02-28T07:09:00;3.10;1.00
21023;DHT22;10669;51.076;3.714;2023-02-28T07:11:27;3.10;1.00
21023;DHT22;10669;51.076;3.714;2023-02-28T07:13:53;3.20;1.00
21023;DHT22;10669;51.076;3.714;2023-02-28T07:16:19;3.20;1.00
21023;DHT22;10669;51.076;3.714;2023-02-28T07:18:46;3.30;99.90
21023;DHT22;10669;51.076;3.714;2023-02-28T07:21:13;3.20;99.90
21023;DHT22;10669;51.076;3.714;2023-02-28T07:23:38;3.20;99.90
21023;DHT22;10669;51.076;3.714;2023-02-28T07:26:05;3.20;99.90
21023;DHT22;10669;51.076;3.714;2023-02-28T07:28:31;3.10;99.90
21023;DHT22;10669;51.076;3.714;2023-02-28T07:31:02;3.20;99.90
21023;DHT22;10669;51.076;3.714;2023-02-28T07:33:28;3.20;99.90
21023;DHT22;10669;51.076;3.714;2023-02-28T07:36:07;3.20;99.90
21023;DHT22;10669;51.076;3.714;2023-02-28T07:38:36;3.20;99.90
21023;DHT22;10669;51.076;3.714;2023-02-28T07:41:02;3.20;53.50
21023;DHT22;10669;51.076;3.714;2023-02-28T07:43:31;3.20;99.90
21023;DHT22;10669;51.076;3.714;2023-02-28T07:46:08;3.20;1.00
21023;DHT22;10669;51.076;3.714;2023-02-28T07:48:34;3.20;1.00
21023;DHT22;10669;51.076;3.714;2023-02-28T07:51:00;3.20;1.00
21023;DHT22;10669;51.076;3.714;2023-02-28T07:53:26;3.30;1.00
21023;DHT22;10669;51.076;3.714;2023-02-28T07:55:56;3.30;1.00
21023;DHT22;10669;51.076;3.714;2023-02-28T07:58:22;3.20;1.00
21023;DHT22;10669;51.076;3.714;2023-02-28T08:00:50;3.20;99.90
21023;DHT22;10669;51.076;3.714;2023-02-28T08:03:17;3.10;99.90
21023;DHT22;10669;51.076;3.714;2023-02-28T08:05:42;3.20;99.90
21023;DHT22;10669;51.076;3.714;2023-02-28T08:08:10;3.20;99.90
21023;DHT22;10669;51.076;3.714;2023-02-28T08:10:36;3.30;99.90
21023;DHT22;10669;51.076;3.714;2023-02-28T08:13:02;3.40;99.90
21023;DHT22;10669;51.076;3.714;2023-02-28T08:15:30;3.40;99.90
21023;DHT22;10669;51.076;3.714;2023-02-28T08:17:56;3.30;99.90
21023;DHT22;10669;51.076;3.714;2023-02-28T08:20:24;3.30;1.00
21023;DHT22;10669;51.076;3.714;2023-02-28T08:22:50;3.30;99.90
21023;DHT22;10669;51.076;3.714;2023-02-28T08:25:19;3.40;1.00
21023;DHT22;10669;51.076;3.714;2023-02-28T08:27:45;3.50;99.90
21023;DHT22;10669;51.076;3.714;2023-02-28T08:30:11;3.60;1.00
21023;DHT22;10669;51.076;3.714;2023-02-28T08:32:38;3.60;99.90
21023;DHT22;10669;51.076;3.714;2023-02-28T08:35:07;3.60;99.90
21023;DHT22;10669;51.076;3.714;2023-02-28T08:37:35;3.50;1.00
21023;DHT22;10669;51.076;3.714;2023-02-28T08:40:02;3.50;1.00
21023;DHT22;10669;51.076;3.714;2023-02-28T08:42:35;3.50;1.00
21023;DHT22;10669;51.076;3.714;2023-02-28T08:45:01;3.70;1.00
21023;DHT22;10669;51.076;3.714;2023-02-28T08:47:28;3.70;1.00
21023;DHT22;10669;51.076;3.714;2023-02-28T08:49:55;3.50;1.00
21023;DHT22;10669;51.076;3.714;2023-02-28T08:52:21;3.40;1.00
21023;DHT22;10669;51.076;3.714;2023-02-28T08:54:51;3.50;1.00
21023;DHT22;10669;51.076;3.714;2023-02-28T08:57:17;3.40;1.00
21023;DHT22;10669;51.076;3.714;2023-02-28T08:59:43;3.50;1.00
21023;DHT22;10669;51.076;3.714;2023-02-28T09:02:14;3.60;1.00
21023;DHT22;10669;51.076;3.714;2023-02-28T09:04:41;3.60;1.00
21023;DHT22;10669;51.076;3.714;2023-02-28T09:07:08;3.60;1.00
21023;DHT22;10669;51.076;3.714;2023-02-28T09:09:34;3.70;1.00
21023;DHT22;10669;51.076;3.714;2023-02-28T09:12:01;3.90;1.00
21023;DHT22;10669;51.076;3.714;2023-02-28T09:14:27;3.90;1.00
21023;DHT22;10669;51.076;3.714;2023-02-28T09:16:52;3.80;1.00
21023;DHT22;10669;51.076;3.714;2023-02-28T09:19:19;3.70;1.00
21023;DHT22;10669;51.076;3.714;2023-02-28T09:21:47;3.70;1.00
21023;DHT22;10669;51.076;3.714;2023-02-28T09:24:12;3.80;1.00
21023;DHT22;10669;51.076;3.714;2023-02-28T09:26:40;4.10;99.90
21023;DHT22;10669;51.076;3.714;2023-02-28T09:29:10;4.10;99.90
21023;DHT22;10669;51.076;3.714;2023-02-28T09:31:36;4.20;99.90
21023;DHT22;10669;51.076;3.714;2023-02-28T09:34:03;4.30;99.90
21023;DHT22;10669;51.076;3.714;2023-02-28T09:36:29;4.50;1.00
21023;DHT22;10669;51.076;3.714;2023-02-28T09:38:55;4.80;99.90
21023;DHT22;10669;51.076;3.714;2023-02-28T09:41:24;4.80;99.90
21023;DHT22;10669;51.076;3.714;2023-02-28T09:43:57;4.70;99.90
21023;DHT22;10669;51.076;3.714;2023-02-28T09:48:50;4.10;1.00
21023;DHT22;10669;51.076;3.714;2023-02-28T09:54:02;3.70;1.00
21023;DHT22;10669;51.076;3.714;2023-02-28T09:56:29;4.10;1.00
21023;DHT22;10669;51.076;3.714;2023-02-28T09:58:58;4.30;1.00
21023;DHT22;10669;51.076;3.714;2023-02-28T10:01:37;4.20;99.90
21023;DHT22;10669;51.076;3.714;2023-02-28T10:06:53;4.40;1.00
21023;DHT22;10669;51.076;3.714;2023-02-28T10:11:48;4.50;1.00
21023;DHT22;10669;51.076;3.714;2023-02-28T10:14:18;4.20;1.00
21023;DHT22;10669;51.076;3.714;2023-02-28T10:16:46;4.10;1.00
21023;DHT22;10669;51.076;3.714;2023-02-28T10:19:24;4.40;1.00
21023;DHT22;10669;51.076;3.714;2023-02-28T10:21:59;4.40;99.90
21023;DHT22;10669;51.076;3.714;2023-02-28T10:24:39;4.40;99.90
21023;DHT22;10669;51.076;3.714;2023-02-28T10:27:16;4.20;1.00
21023;DHT22;10669;51.076;3.714;2023-02-28T10:29:45;4.20;1.00
21023;DHT22;10669;51.076;3.714;2023-02-28T10:32:13;4.60;1.00
21023;DHT22;10669;51.076;3.714;2023-02-28T10:34:41;4.40;99.90
21023;DHT22;10669;51.076;3.714;2023-02-28T10:37:08;4.30;99.90
21023;DHT22;10669;51.076;3.714;2023-02-28T10:39:40;4.50;1.00
21023;DHT22;10669;51.076;3.714;2023-02-28T10:42:19;4.70;96.00
21023;DHT22;10669;51.076;3.714;2023-02-28T10:44:45;4.50;1.00
21023;DHT22;10669;51.076;3.714;2023-02-28T10:47:14;4.90;99.90
21023;DHT22;10669;51.076;3.714;2023-02-28T10:49:46;4.90;1.00
21023;DHT22;10669;51.076;3.714;2023-02-28T10:52:12;4.80;1.00
21023;DHT22;10669;51.076;3.714;2023-02-28T10:54:37;4.90;1.00
21023;DHT22;10669;51.076;3.714;2023-02-28T10:57:07;5.30;1.00
21023;DHT22;10669;51.076;3.714;2023-02-28T10:59:34;5.20;1.00
21023;DHT22;10669;51.076;3.714;2023-02-28T11:04:46;5.10;1.00
21023;DHT22;10669;51.076;3.714;2023-02-28T11:07:20;5.20;1.00
21023;DHT22;10669;51.076;3.714;2023-02-28T11:09:48;5.30;1.00
21023;DHT22;10669;51.076;3.714;2023-02-28T11:12:57;5.80;1.00
21023;DHT22;10669;51.076;3.714;2023-02-28T11:20:23;5.80;1.00
21023;DHT22;10669;51.076;3.714;2023-02-28T11:22:51;5.90;1.00
21023;DHT22;10669;51.076;3.714;2023-02-28T11:25:23;6.20;1.00
21023;DHT22;10669;51.076;3.714;2023-02-28T11:27:51;6.00;99.90
21023;DHT22;10669;51.076;3.714;2023-02-28T11:30:25;6.20;1.00
21023;DHT22;10669;51.076;3.714;2023-02-28T11:32:58;5.90;99.90
21023;DHT22;10669;51.076;3.714;2023-02-28T11:35:33;5.70;1.00
21023;DHT22;10669;51.076;3.714;2023-02-28T11:38:07;5.60;99.90
21023;DHT22;10669;51.076;3.714;2023-02-28T11:40:38;5.40;1.00
21023;DHT22;10669;51.076;3.714;2023-02-28T11:53:05;5.40;1.00
21023;DHT22;10669;51.076;3.714;2023-02-28T11:55:45;5.50;1.00
21023;DHT22;10669;51.076;3.714;2023-02-28T12:01:15;5.80;99.90
21023;DHT22;10669;51.076;3.714;2023-02-28T12:06:21;6.00;99.90
21023;DHT22;10669;51.076;3.714;2023-02-28T12:11:21;6.00;99.90
21023;DHT22;10669;51.076;3.714;2023-02-28T12:13:58;5.90;99.90
21023;DHT22;10669;51.076;3.714;2023-02-28T12:19:20;5.90;99.90
21023;DHT22;10669;51.076;3.714;2023-02-28T12:22:00;6.20;99.90
21023;DHT22;10669;51.076;3.714;2023-02-28T12:26:55;6.20;1.00
21023;DHT22;10669;51.076;3.714;2023-02-28T12:31:59;6.10;1.00
21023;DHT22;10669;51.076;3.714;2023-02-28T12:34:29;6.00;1.00
21023;DHT22;10669;51.076;3.714;2023-02-28T12:37:01;5.90;1.00
21023;DHT22;10669;51.076;3.714;2023-02-28T12:39:32;5.90;1.00
21023;DHT22;10669;51.076;3.714;2023-02-28T12:44:35;5.90;1.00
21023;DHT22;10669;51.076;3.714;2023-02-28T12:47:13;5.80;1.00
21023;DHT22;10669;51.076;3.714;2023-02-28T12:52:14;6.20;1.00
21023;DHT22;10669;51.076;3.714;2023-02-28T12:54:48;6.40;1.00
21023;DHT22;10669;51.076;3.714;2023-02-28T12:57:18;6.50;1.00
21023;DHT22;10669;51.076;3.714;2023-02-28T12:59:59;6.60;1.00
21023;DHT22;10669;51.076;3.714;2023-02-28T13:07:58;6.30;1.00
21023;DHT22;10669;51.076;3.714;2023-02-28T13:10:37;6.20;1.00
21023;DHT22;10669;51.076;3.714;2023-02-28T13:15:34;6.40;1.00
21023;DHT22;10669;51.076;3.714;2023-02-28T13:18:20;6.50;1.00
21023;DHT22;10669;51.076;3.714;2023-02-28T13:20:52;6.40;1.00
21023;DHT22;10669;51.076;3.714;2023-02-28T13:26:05;6.50;1.00
21023;DHT22;10669;51.076;3.714;2023-02-28T13:28:56;6.40;1.00
21023;DHT22;10669;51.076;3.714;2023-02-28T13:31:26;6.20;1.00
21023;DHT22;10669;51.076;3.714;2023-02-28T13:36:31;6.20;1.00
21023;DHT22;10669;51.076;3.714;2023-02-28T13:39:00;6.60;1.00
21023;DHT22;10669;51.076;3.714;2023-02-28T13:41:43;6.70;1.00
21023;DHT22;10669;51.076;3.714;2023-02-28T13:44:18;6.90;1.00
21023;DHT22;10669;51.076;3.714;2023-02-28T13:49:25;6.30;1.00
21023;DHT22;10669;51.076;3.714;2023-02-28T13:59:51;6.60;1.00
21023;DHT22;10669;51.076;3.714;2023-02-28T14:05:05;6.70;1.00
21023;DHT22;10669;51.076;3.714;2023-02-28T14:08:32;6.50;1.00
21023;DHT22;10669;51.076;3.714;2023-02-28T14:10:28;6.40;1.00
21023;DHT22;10669;51.076;3.714;2023-02-28T14:13:10;6.30;1.00
21023;DHT22;10669;51.076;3.714;2023-02-28T14:15:44;6.50;1.00
21023;DHT22;10669;51.076;3.714;2023-02-28T14:18:14;6.60;1.00
21023;DHT22;10669;51.076;3.714;2023-02-28T14:20:41;6.50;1.00
21023;DHT22;10669;51.076;3.714;2023-02-28T14:23:16;6.70;1.00
21023;DHT22;10669;51.076;3.714;2023-02-28T14:26:00;6.50;1.00
21023;DHT22;10669;51.076;3.714;2023-02-28T14:41:12;6.80;1.00
21023;DHT22;10669;51.076;3.714;2023-02-28T14:43:47;6.90;1.00
21023;DHT22;10669;51.076;3.714;2023-02-28T14:46:17;7.00;1.00
21023;DHT22;10669;51.076;3.714;2023-02-28T14:48:47;7.00;1.00
21023;DHT22;10669;51.076;3.714;2023-02-28T14:51:17;7.20;1.00
21023;DHT22;10669;51.076;3.714;2023-02-28T14:53:44;6.90;1.00
21023;DHT22;10669;51.076;3.714;2023-02-28T14:56:26;6.50;1.00
21023;DHT22;10669;51.076;3.714;2023-02-28T14:58:55;6.90;1.00
21023;DHT22;10669;51.076;3.714;2023-02-28T15:01:24;7.50;1.00
21023;DHT22;10669;51.076;3.714;2023-02-28T15:03:58;8.10;1.00
21023;DHT22;10669;51.076;3.714;2023-02-28T15:06:25;8.30;99.90
21023;DHT22;10669;51.076;3.714;2023-02-28T15:09:13;8.00;99.90
21023;DHT22;10669;51.076;3.714;2023-02-28T15:11:40;8.60;99.90
21023;DHT22;10669;51.076;3.714;2023-02-28T15:14:12;9.60;99.90
21023;DHT22;10669;51.076;3.714;2023-02-28T15:16:41;10.00;99.90
21023;DHT22;10669;51.076;3.714;2023-02-28T15:21:36;9.20;99.90
21023;DHT22;10669;51.076;3.714;2023-02-28T15:26:35;9.50;99.90
21023;DHT22;10669;51.076;3.714;2023-02-28T15:29:11;10.00;99.90
21023;DHT22;10669;51.076;3.714;2023-02-28T15:31:45;10.00;99.90
21023;DHT22;10669;51.076;3.714;2023-02-28T15:34:20;9.60;99.90
21023;DHT22;10669;51.076;3.714;2023-02-28T15:36:48;9.10;99.90
21023;DHT22;10669;51.076;3.714;2023-02-28T15:39:24;8.70;99.90
21023;DHT22;10669;51.076;3.714;2023-02-28T15:41:50;8.70;99.90
21023;DHT22;10669;51.076;3.714;2023-02-28T15:44:28;8.70;99.90
21023;DHT22;10669;51.076;3.714;2023-02-28T15:47:00;8.40;99.90
21023;DHT22;10669;51.076;3.714;2023-02-28T15:49:26;8.30;99.90
21023;DHT22;10669;51.076;3.714;2023-02-28T15:51:54;7.40;99.90
21023;DHT22;10669;51.076;3.714;2023-02-28T15:54:27;6.70;99.90
21023;DHT22;10669;51.076;3.714;2023-02-28T15:56:55;6.70;99.90
21023;DHT22;10669;51.076;3.714;2023-02-28T15:59:23;6.90;99.90
21023;DHT22;10669;51.076;3.714;2023-02-28T16:02:03;7.60;99.90
21023;DHT22;10669;51.076;3.714;2023-02-28T16:04:30;8.00;99.90
21023;DHT22;10669;51.076;3.714;2023-02-28T16:07:06;7.40;99.90
21023;DHT22;10669;51.076;3.714;2023-02-28T16:09:31;6.80;99.90
21023;DHT22;10669;51.076;3.714;2023-02-28T16:12:01;6.90;99.90
21023;DHT22;10669;51.076;3.714;2023-02-28T16:14:28;6.90;99.90
21023;DHT22;10669;51.076;3.714;2023-02-28T16:17:02;6.80;99.90
21023;DHT22;10669;51.076;3.714;2023-02-28T16:19:28;6.70;99.90
21023;DHT22;10669;51.076;3.714;2023-02-28T16:21:55;6.40;99.90
21023;DHT22;10669;51.076;3.714;2023-02-28T16:24:21;6.00;1.00
21023;DHT22;10669;51.076;3.714;2023-02-28T16:26:48;6.20;1.00
21023;DHT22;10669;51.076;3.714;2023-02-28T16:29:23;6.30;1.00
21023;DHT22;10669;51.076;3.714;2023-02-28T16:31:50;6.30;1.00
21023;DHT22;10669;51.076;3.714;2023-02-28T16:34:17;6.10;1.00
21023;DHT22;10669;51.076;3.714;2023-02-28T16:36:42;6.30;1.00
21023;DHT22;10669;51.076;3.714;2023-02-28T16:39:10;6.20;1.00
21023;DHT22;10669;51.076;3.714;2023-02-28T16:41:37;5.90;1.00
21023;DHT22;10669;51.076;3.714;2023-02-28T16:44:05;6.10;1.00
21023;DHT22;10669;51.076;3.714;2023-02-28T16:46:35;6.30;1.00
21023;DHT22;10669;51.076;3.714;2023-02-28T16:49:01;6.00;1.00
21023;DHT22;10669;51.076;3.714;2023-02-28T16:51:28;5.70;1.00
21023;DHT22;10669;51.076;3.714;2023-02-28T16:53:54;5.50;1.00
21023;DHT22;10669;51.076;3.714;2023-02-28T16:56:23;5.40;1.00
21023;DHT22;10669;51.076;3.714;2023-02-28T16:58:50;5.10;1.00
21023;DHT22;10669;51.076;3.714;2023-02-28T17:01:17;5.50;1.00
21023;DHT22;10669;51.076;3.714;2023-02-28T17:03:49;5.50;1.00
21023;DHT22;10669;51.076;3.714;2023-02-28T17:06:19;5.10;1.00
21023;DHT22;10669;51.076;3.714;2023-02-28T17:08:45;5.00;1.00
21023;DHT22;10669;51.076;3.714;2023-02-28T17:11:11;5.00;1.00
21023;DHT22;10669;51.076;3.714;2023-02-28T17:13:38;4.90;1.00
21023;DHT22;10669;51.076;3.714;2023-02-28T17:16:07;4.80;1.00
21023;DHT22;10669;51.076;3.714;2023-02-28T17:18:35;4.90;99.90
21023;DHT22;10669;51.076;3.714;2023-02-28T17:21:15;5.00;31.70
21023;DHT22;10669;51.076;3.714;2023-02-28T17:23:42;5.20;1.00
21023;DHT22;10669;51.076;3.714;2023-02-28T17:26:12;5.30;1.00
21023;DHT22;10669;51.076;3.714;2023-02-28T17:31:27;5.50;1.00
21023;DHT22;10669;51.076;3.714;2023-02-28T17:33:54;5.20;1.00
21023;DHT22;10669;51.076;3.714;2023-02-28T17:36:24;5.00;99.90
21023;DHT22;10669;51.076;3.714;2023-02-28T17:38:51;4.80;99.90
21023;DHT22;10669;51.076;3.714;2023-02-28T17:41:18;4.60;99.90
21023;DHT22;10669;51.076;3.714;2023-02-28T17:43:45;4.60;1.00
21023;DHT22;10669;51.076;3.714;2023-02-28T17:46:16;4.90;99.90
21023;DHT22;10669;51.076;3.714;2023-02-28T17:48:46;5.00;99.90
21023;DHT22;10669;51.076;3.714;2023-02-28T17:51:12;4.70;99.90
21023;DHT22;10669;51.076;3.714;2023-02-28T17:53:37;4.40;99.90
21023;DHT22;10669;51.076;3.714;2023-02-28T17:56:03;4.70;99.90
21023;DHT22;10669;51.076;3.714;2023-02-28T17:58:30;4.60;99.90
21023;DHT22;10669;51.076;3.714;2023-02-28T18:00:58;4.30;1.00
21023;DHT22;10669;51.076;3.714;2023-02-28T18:03:26;4.10;1.00
21023;DHT22;10669;51.076;3.714;2023-02-28T18:05:53;4.20;1.00
21023;DHT22;10669;51.076;3.714;2023-02-28T18:08:20;4.30;1.00
21023;DHT22;10669;51.076;3.714;2023-02-28T18:10:48;4.10;1.00
21023;DHT22;10669;51.076;3.714;2023-02-28T18:13:13;4.10;1.00
21023;DHT22;10669;51.076;3.714;2023-02-28T18:15:40;4.00;1.00
21023;DHT22;10669;51.076;3.714;2023-02-28T18:18:09;3.90;1.00
21023;DHT22;10669;51.076;3.714;2023-02-28T18:20:34;3.90;1.00
21023;DHT22;10669;51.076;3.714;2023-02-28T18:23:01;3.90;1.00
21023;DHT22;10669;51.076;3.714;2023-02-28T18:25:30;3.80;35.70